8IS2 weather

Kilsoquah Farm Airport
Roanoke, Indiana, United States

Public forecast

Using degrees Fahrenheit for public forecast. Weather courtesy of forecast.io.

METAR (pilot weather report)

Closest report is Fort Wayne International Airport, 8.9 nm (16.4 km) E. Retrieved 2019/04/22 05:54 UTC (27 minutes ago):

KFWA 220554Z 14006KT 10SM BKN150 12/08 A3016 RMK AO2 SLP211 T01170083 10172 20111 52003

TAF (pilot weather forecast)

Closest forecast is Fort Wayne International Airport, 8.9 nm (16.4 km) E. Retrieved 2019/04/22 06:24 UTC (0 seconds ago):

TAF KFWA 220522Z 2206/2306 15006KT P6SM FEW250 TEMPO 2210/2213 4SM BR FM221500 18013G22KT P6SM SCT250